Time;durP1;ratioP1;P1;durP2;ratioP2;P2;SDS_P1;SDS_P2;PMS_P1;PMS_P2;Temp;Humidity;BMP_temperature;BMP_pressure;BME280_temperature;BME280_humidity;BME280_pressure;Samples;Min_cycle;Max_cycle;Signal;HPM_P1;HPM_P2
2024/02/19 00:08:03;;;;;;;14.40;11.20;;;;;;;-1.48;100.00;100265.23;437938;1251;141395;-61
2024/02/19 00:18:29;;;;;;;12.20;10.90;;;;;;;-1.48;100.00;100241.88;438873;1254;140488;-58
2024/02/19 00:28:55;;;;;;;9.70;8.60;;;;;;;-1.59;100.00;100217.38;437487;1256;143522;-58
2024/02/19 00:39:21;;;;;;;14.20;10.00;;;;;;;-1.72;100.00;100212.77;438146;1251;141151;-57
2024/02/19 00:49:49;;;;;;;12.50;8.50;;;;;;;-1.84;100.00;100205.79;437430;1256;140760;-58
2024/02/19 01:00:17;;;;;;;13.70;10.10;;;;;;;-1.93;100.00;100181.79;437961;1253;140415;-64
2024/02/19 01:10:44;;;;;;;13.90;10.20;;;;;;;-1.97;100.00;100149.71;435903;1253;141006;-62
2024/02/19 01:21:10;;;;;;;11.60;10.20;;;;;;;-2.01;100.00;100132.05;436882;1255;140748;-63
2024/02/19 01:31:37;;;;;;;11.90;9.40;;;;;;;-2.00;100.00;100111.12;436815;1257;140731;-63
2024/02/19 01:42:05;;;;;;;13.50;11.40;;;;;;;-1.93;100.00;100096.84;436500;1255;140537;-59
2024/02/19 01:52:31;;;;;;;13.00;9.80;;;;;;;-1.86;100.00;100074.68;436268;1256;141206;-60
2024/02/19 02:02:58;;;;;;;13.50;10.60;;;;;;;-1.76;100.00;100056.76;438863;1256;140891;-64
2024/02/19 02:13:24;;;;;;;14.90;11.40;;;;;;;-1.70;100.00;100036.29;439317;1256;140256;-61
2024/02/19 02:23:51;;;;;;;12.90;10.50;;;;;;;-1.67;100.00;100011.73;436506;1256;141136;-61
2024/02/19 02:34:17;;;;;;;12.70;9.30;;;;;;;-1.60;100.00;100000.86;437657;1256;141194;-58
2024/02/19 02:44:46;;;;;;;13.70;10.80;;;;;;;-1.57;100.00;99967.87;437629;1256;140617;-57
2024/02/19 02:55:12;;;;;;;13.50;11.50;;;;;;;-1.53;100.00;99977.30;437193;1256;140543;-57
2024/02/19 03:05:39;;;;;;;16.20;11.90;;;;;;;-1.46;100.00;99946.83;436841;1256;140477;-58
2024/02/19 03:16:06;;;;;;;15.60;11.20;;;;;;;-1.39;100.00;99933.02;437454;1256;140089;-58
2024/02/19 03:26:32;;;;;;;18.00;14.00;;;;;;;-1.35;100.00;99906.38;438577;1253;140424;-58
2024/02/19 03:37:09;;;;;;;14.30;10.20;;;;;;;-1.31;100.00;99891.23;438953;1253;140325;-59
2024/02/19 03:47:35;;;;;;;17.50;12.70;;;;;;;-1.28;100.00;99877.77;439779;1254;141311;-60
2024/02/19 03:58:01;;;;;;;11.30;10.10;;;;;;;-1.24;100.00;99858.50;437163;1253;140667;-63
2024/02/19 04:08:28;;;;;;;15.70;11.80;;;;;;;-1.19;100.00;99843.68;436475;1256;139564;-63
2024/02/19 04:18:54;;;;;;;15.80;12.60;;;;;;;-1.13;100.00;99830.20;436941;1256;140259;-63
2024/02/19 04:29:21;;;;;;;19.10;14.10;;;;;;;-1.09;100.00;99817.95;437724;1256;140614;-59
2024/02/19 04:39:47;;;;;;;15.60;11.70;;;;;;;-1.04;100.00;99788.69;438465;1256;139682;-59
2024/02/19 04:50:13;;;;;;;17.20;13.00;;;;;;;-1.00;100.00;99776.95;436546;1253;139880;-58
2024/02/19 05:00:40;;;;;;;17.50;11.70;;;;;;;-1.01;100.00;99764.41;439901;1256;140600;-58
2024/02/19 05:11:10;;;;;;;18.60;14.80;;;;;;;-0.98;100.00;99753.73;437714;1253;140613;-59
2024/02/19 05:21:41;;;;;;;19.10;14.00;;;;;;;-0.87;100.00;99741.70;436967;1256;140188;-57
2024/02/19 05:32:10;;;;;;;18.90;14.40;;;;;;;-0.72;100.00;99725.48;437398;1253;140220;-58
2024/02/19 05:42:34;;;;;;;;;;;;;;;-0.53;100.00;99715.57;437421;1253;140251;-61
2024/02/19 05:53:01;;;;;;;21.30;15.80;;;;;;;-0.41;100.00;99713.30;436073;1253;126139;-57
2024/02/19 06:03:28;;;;;;;19.20;13.60;;;;;;;-0.29;100.00;99705.02;436441;1254;140436;-58
2024/02/19 06:13:54;;;;;;;22.30;14.30;;;;;;;-0.18;100.00;99696.55;438768;1256;140584;-59
2024/02/19 06:24:23;;;;;;;25.90;17.30;;;;;;;-0.04;100.00;99689.27;438762;1253;141114;-64
2024/02/19 06:34:49;;;;;;;24.70;16.50;;;;;;;0.15;100.00;99678.91;436350;1256;140222;-62
2024/02/19 06:45:15;;;;;;;29.50;18.40;;;;;;;0.35;100.00;99674.39;433534;1256;5104007;-58
2024/02/19 06:55:42;;;;;;;19.70;16.10;;;;;;;0.53;100.00;99665.05;436479;1253;140452;-57
2024/02/19 07:06:08;;;;;;;19.20;15.80;;;;;;;0.71;100.00;99666.05;436842;1256;140414;-66
2024/02/19 07:16:34;;;;;;;21.30;16.00;;;;;;;0.91;100.00;99658.35;437157;1256;140279;-61
2024/02/19 07:27:01;;;;;;;23.70;15.90;;;;;;;1.07;100.00;99649.19;438524;1252;140527;-59
2024/02/19 07:37:27;;;;;;;21.20;15.40;;;;;;;1.15;100.00;99638.31;437785;1254;139909;-60
2024/02/19 07:47:56;;;;;;;22.40;18.20;;;;;;;1.28;100.00;99624.71;440922;1256;140303;-61
2024/02/19 07:58:20;;;;;;;;;;;;;;;1.41;100.00;99610.57;438952;1252;139383;-62
2024/02/19 08:08:47;;;;;;;24.60;19.60;;;;;;;1.59;100.00;99599.95;436850;1253;126285;-67
2024/02/19 08:19:13;;;;;;;22.80;19.20;;;;;;;1.68;100.00;99592.45;437497;1253;140728;-64
2024/02/19 08:29:39;;;;;;;25.70;18.70;;;;;;;1.82;100.00;99570.84;438601;1255;140063;-75
2024/02/19 08:40:08;;;;;;;31.70;20.00;;;;;;;1.84;100.00;99559.73;437711;1256;140190;-60
2024/02/19 08:50:35;;;;;;;27.10;19.20;;;;;;;1.88;100.00;99550.63;437998;1256;142047;-62
2024/02/19 09:01:02;;;;;;;23.50;19.10;;;;;;;1.94;100.00;99551.66;440587;1255;141448;-70
2024/02/19 09:11:29;;;;;;;27.10;21.40;;;;;;;2.01;100.00;99532.81;440262;1254;140780;-71
2024/02/19 09:21:56;;;;;;;26.70;20.70;;;;;;;2.01;100.00;99531.80;442818;1249;140432;-61
2024/02/19 09:32:02;;;;;;;28.30;19.70;;;;;;;1.96;100.00;99525.39;438596;1255;139972;-69
2024/02/19 09:42:10;;;;;;;24.80;18.90;;;;;;;1.96;100.00;99513.13;438710;1255;140108;-64
2024/02/19 09:52:21;;;;;;;30.70;21.70;;;;;;;2.11;100.00;99508.52;443621;1255;140596;-58
2024/02/19 10:02:29;;;;;;;28.60;20.90;;;;;;;2.38;100.00;99504.59;438497;1255;139911;-61
2024/02/19 10:12:35;;;;;;;29.70;22.10;;;;;;;2.62;100.00;99500.36;437967;1253;140392;-66
2024/02/19 10:22:41;;;;;;;28.80;21.40;;;;;;;2.84;100.00;99493.09;439343;1255;140485;-68
2024/02/19 10:32:47;;;;;;;29.50;21.50;;;;;;;2.93;100.00;99486.02;438807;1258;139764;-68
2024/02/19 10:42:54;;;;;;;29.60;22.40;;;;;;;3.01;100.00;99471.95;437538;1254;141617;-61
2024/02/19 10:53:05;;;;;;;27.60;20.70;;;;;;;3.22;100.00;99459.78;440920;1257;140040;-61
2024/02/19 11:03:13;;;;;;;26.60;20.80;;;;;;;3.52;100.00;99443.13;438142;1257;140245;-59
2024/02/19 11:13:20;;;;;;;27.50;21.60;;;;;;;3.72;100.00;99429.91;437644;1258;140253;-65
2024/02/19 11:23:28;;;;;;;26.10;18.60;;;;;;;4.01;100.00;99415.98;438111;1257;140362;-65
2024/02/19 11:33:34;;;;;;;25.30;19.60;;;;;;;4.26;100.00;99407.69;438243;1256;139807;-67
2024/02/19 11:43:41;;;;;;;26.10;20.20;;;;;;;4.32;100.00;99393.62;437220;1254;140698;-57
2024/02/19 11:53:48;;;;;;;25.70;20.30;;;;;;;4.35;100.00;99380.65;438523;1254;140950;-66
2024/02/19 12:03:53;;;;;;;;;;;;;;;4.37;100.00;99362.71;437877;1257;139373;-56
2024/02/19 12:13:59;;;;;;;25.40;19.00;;;;;;;4.66;100.00;99352.52;437748;1256;126114;-62
2024/02/19 12:24:06;;;;;;;25.30;19.20;;;;;;;4.97;100.00;99332.41;437213;1257;140451;-68
2024/02/19 12:34:12;;;;;;;28.50;19.10;;;;;;;5.12;100.00;99314.92;437205;1257;139836;-61
2024/02/19 12:44:19;;;;;;;19.70;15.80;;;;;;;5.21;100.00;99307.71;437280;1257;140428;-65
2024/02/19 12:54:25;;;;;;;27.40;20.50;;;;;;;5.41;100.00;99301.05;438273;1257;140276;-69
2024/02/19 13:04:31;;;;;;;19.40;14.80;;;;;;;5.66;100.00;99295.23;438011;1254;140754;-64
2024/02/19 13:14:38;;;;;;;15.40;11.80;;;;;;;5.92;100.00;99289.44;440328;1257;140192;-64
2024/02/19 13:24:45;;;;;;;9.50;8.30;;;;;;;6.06;100.00;99282.73;438336;1255;140491;-59
2024/02/19 13:34:52;;;;;;;10.00;7.30;;;;;;;6.03;100.00;99280.39;438055;1254;139415;-60
2024/02/19 13:44:59;;;;;;;7.20;4.80;;;;;;;5.97;100.00;99279.61;437732;1254;140015;-61
2024/02/19 13:55:06;;;;;;;2.90;2.60;;;;;;;5.92;100.00;99281.98;437502;1255;140199;-61
2024/02/19 14:05:13;;;;;;;4.00;3.40;;;;;;;5.90;100.00;99278.79;440945;1253;140069;-66
2024/02/19 14:15:19;;;;;;;2.70;2.50;;;;;;;5.83;100.00;99283.46;437751;1257;139439;-62
2024/02/19 14:25:25;;;;;;;1.80;1.70;;;;;;;5.67;100.00;99296.19;438379;1257;140749;-65
2024/02/19 14:35:32;;;;;;;2.30;2.10;;;;;;;5.61;100.00;99309.67;439510;1257;140706;-67
2024/02/19 14:45:38;;;;;;;3.40;1.70;;;;;;;5.51;100.00;99317.80;437587;1257;139963;-61
2024/02/19 14:55:44;;;;;;;2.00;1.50;;;;;;;5.41;100.00;99330.26;437195;1257;140483;-61
2024/02/19 15:05:52;;;;;;;1.60;1.50;;;;;;;5.30;100.00;99339.27;437242;1257;139886;-61
2024/02/19 15:15:56;;;;;;;;;;;;;;;5.16;100.00;99348.05;438060;1254;140271;-61
2024/02/19 15:26:03;;;;;;;2.90;2.60;;;;;;;5.07;100.00;99352.42;437389;1256;125827;-59
2024/02/19 15:36:10;;;;;;;9.70;8.70;;;;;;;5.03;100.00;99357.13;437835;1258;139839;-61
2024/02/19 15:46:16;;;;;;;3.60;2.70;;;;;;;4.98;100.00;99359.80;440121;1255;139511;-56
2024/02/19 15:56:24;;;;;;;3.20;3.00;;;;;;;4.95;100.00;99365.48;438636;1254;139424;-61
2024/02/19 16:06:31;;;;;;;4.40;4.00;;;;;;;4.96;100.00;99366.82;436842;1255;139650;-64
2024/02/19 16:16:38;;;;;;;6.20;5.60;;;;;;;4.95;100.00;99366.17;439397;1253;139696;-64
2024/02/19 16:26:44;;;;;;;4.10;3.80;;;;;;;4.93;100.00;99379.59;437472;1256;138948;-63
2024/02/19 16:36:50;;;;;;;3.60;3.30;;;;;;;4.88;100.00;99391.24;436977;1257;140187;-60
2024/02/19 16:46:56;;;;;;;2.70;2.40;;;;;;;4.85;100.00;99406.31;436643;1253;138947;-59
2024/02/19 16:57:03;;;;;;;3.20;2.80;;;;;;;4.81;100.00;99421.05;438148;1257;139880;-53
2024/02/19 17:07:08;;;;;;;2.00;1.90;;;;;;;4.76;100.00;99434.77;436865;1257;139726;-56
2024/02/19 17:17:15;;;;;;;3.30;3.00;;;;;;;4.72;100.00;99442.39;437478;1257;141414;-62
2024/02/19 17:27:21;;;;;;;2.40;2.00;;;;;;;4.61;100.00;99448.57;437341;1256;139596;-62
2024/02/19 17:37:28;;;;;;;1.60;1.50;;;;;;;4.47;100.00;99454.69;437296;1255;139769;-53
2024/02/19 17:47:36;;;;;;;2.70;1.30;;;;;;;4.37;100.00;99461.19;437330;1254;139595;-51
2024/02/19 17:57:42;;;;;;;1.80;1.70;;;;;;;4.27;100.00;99474.90;437721;1254;139902;-59
2024/02/19 18:07:49;;;;;;;1.80;1.70;;;;;;;4.23;100.00;99484.60;438618;1255;140253;-50
2024/02/19 18:17:56;;;;;;;2.90;2.30;;;;;;;4.22;100.00;99493.30;436717;1252;139497;-61
2024/02/19 18:28:03;;;;;;;2.10;1.90;;;;;;;4.20;100.00;99495.82;436968;1257;139557;-61
2024/02/19 18:38:10;;;;;;;4.00;3.60;;;;;;;4.18;100.00;99500.56;432822;1254;5087322;-62
2024/02/19 18:48:18;;;;;;;2.40;2.20;;;;;;;4.16;100.00;99510.52;436932;1253;140338;-49
2024/02/19 18:58:26;;;;;;;3.10;2.30;;;;;;;4.11;100.00;99510.19;437310;1257;139533;-50
2024/02/19 19:08:32;;;;;;;2.70;2.40;;;;;;;4.09;100.00;99521.67;438149;1253;139352;-60
2024/02/19 19:18:38;;;;;;;3.50;2.30;;;;;;;4.10;100.00;99529.98;436983;1256;139863;-59
2024/02/19 19:28:45;;;;;;;4.00;3.10;;;;;;;4.07;100.00;99537.34;437217;1253;139470;-60
2024/02/19 19:38:51;;;;;;;3.80;3.40;;;;;;;4.04;100.00;99546.30;437782;1257;139633;-59
2024/02/19 19:48:57;;;;;;;4.50;3.80;;;;;;;3.97;100.00;99554.00;438584;1254;139566;-59
2024/02/19 19:59:04;;;;;;;4.10;3.70;;;;;;;3.91;100.00;99557.20;439571;1253;140704;-59
2024/02/19 20:09:10;;;;;;;7.70;5.00;;;;;;;3.86;100.00;99563.23;437294;1256;139561;-53
2024/02/19 20:19:16;;;;;;;4.90;4.40;;;;;;;3.85;100.00;99572.98;438224;1254;140899;-54
2024/02/19 20:29:22;;;;;;;4.60;4.00;;;;;;;3.85;100.00;99585.82;436953;1256;140085;-50
2024/02/19 20:39:29;;;;;;;7.30;3.50;;;;;;;3.83;100.00;99589.02;437037;1256;139429;-49
2024/02/19 20:49:34;;;;;;;;;;;;;;;3.81;100.00;99598.59;436889;1257;140425;-52
2024/02/19 20:59:40;;;;;;;4.60;3.70;;;;;;;3.82;100.00;99611.02;436898;1257;126397;-59
2024/02/19 21:09:46;;;;;;;3.50;3.20;;;;;;;3.83;100.00;99610.33;438611;1253;139672;-62
2024/02/19 21:19:56;;;;;;;4.70;3.30;;;;;;;3.84;100.00;99614.23;437564;1254;140080;-54
2024/02/19 21:30:03;;;;;;;3.90;3.50;;;;;;;3.85;100.00;99616.64;437158;1257;140197;-50
2024/02/19 21:40:12;;;;;;;4.40;3.00;;;;;;;3.82;100.00;99615.71;437859;1254;140907;-54
2024/02/19 21:50:18;;;;;;;4.10;3.40;;;;;;;3.80;100.00;99618.17;438665;1256;140243;-56
2024/02/19 22:00:24;;;;;;;4.90;4.10;;;;;;;3.79;100.00;99613.02;437053;1256;139783;-61
2024/02/19 22:10:30;;;;;;;6.60;5.90;;;;;;;3.78;100.00;99617.20;437201;1257;139961;-59
2024/02/19 22:20:37;;;;;;;6.30;5.30;;;;;;;3.75;100.00;99618.38;437585;1257;140100;-50
2024/02/19 22:30:43;;;;;;;4.90;4.40;;;;;;;3.78;100.00;99621.20;436957;1253;139434;-52
2024/02/19 22:40:49;;;;;;;5.90;5.40;;;;;;;3.79;100.00;99611.29;437634;1257;140645;-61
2024/02/19 22:50:55;;;;;;;7.40;6.70;;;;;;;3.85;100.00;99615.76;439390;1257;139575;-60
2024/02/19 23:01:01;;;;;;;9.70;7.90;;;;;;;3.94;100.00;99623.23;438510;1257;139642;-61
2024/02/19 23:11:09;;;;;;;8.10;7.10;;;;;;;4.01;100.00;99621.25;438422;1252;140213;-53
2024/02/19 23:21:16;;;;;;;7.50;6.80;;;;;;;4.09;100.00;99623.05;439759;1257;139395;-60
2024/02/19 23:31:22;;;;;;;5.80;5.30;;;;;;;4.15;100.00;99622.13;439844;1257;139142;-52
2024/02/19 23:41:28;;;;;;;5.40;4.90;;;;;;;4.20;100.00;99615.69;439035;1254;139840;-61
2024/02/19 23:51:34;;;;;;;5.40;4.40;;;;;;;4.24;100.00;99617.64;438540;1258;139881;-53
